sensor_id;sensor_type;location;lat;lon;timestamp;temperature;humidity
57892;DHT22;43708;48.828;9.166;2023-04-06T00:01:27;20.10;58.70
57892;DHT22;43708;48.828;9.166;2023-04-06T00:03:53;20.10;58.70
57892;DHT22;43708;48.828;9.166;2023-04-06T00:06:18;20.10;59.30
57892;DHT22;43708;48.828;9.166;2023-04-06T00:08:45;20.10;58.70
57892;DHT22;43708;48.828;9.166;2023-04-06T00:11:11;20.10;59.30
57892;DHT22;43708;48.828;9.166;2023-04-06T00:13:37;20.10;58.70
57892;DHT22;43708;48.828;9.166;2023-04-06T00:16:03;20.10;58.70
57892;DHT22;43708;48.828;9.166;2023-04-06T00:18:30;20.10;58.70
57892;DHT22;43708;48.828;9.166;2023-04-06T00:20:56;20.10;58.80
57892;DHT22;43708;48.828;9.166;2023-04-06T00:23:21;20.10;58.70
57892;DHT22;43708;48.828;9.166;2023-04-06T00:25:47;20.00;58.70
57892;DHT22;43708;48.828;9.166;2023-04-06T00:28:13;20.00;58.70
57892;DHT22;43708;48.828;9.166;2023-04-06T00:30:38;20.00;58.70
57892;DHT22;43708;48.828;9.166;2023-04-06T00:33:04;20.00;58.70
57892;DHT22;43708;48.828;9.166;2023-04-06T00:35:30;20.00;58.70
57892;DHT22;43708;48.828;9.166;2023-04-06T00:37:56;20.00;58.80
57892;DHT22;43708;48.828;9.166;2023-04-06T00:40:21;20.00;58.80
57892;DHT22;43708;48.828;9.166;2023-04-06T00:42:47;20.00;58.80
57892;DHT22;43708;48.828;9.166;2023-04-06T00:45:13;20.00;58.80
57892;DHT22;43708;48.828;9.166;2023-04-06T00:47:38;20.00;58.80
57892;DHT22;43708;48.828;9.166;2023-04-06T00:50:04;20.00;58.80
57892;DHT22;43708;48.828;9.166;2023-04-06T00:52:30;20.00;58.80
57892;DHT22;43708;48.828;9.166;2023-04-06T00:54:56;20.00;58.80
57892;DHT22;43708;48.828;9.166;2023-04-06T00:57:21;20.00;58.80
57892;DHT22;43708;48.828;9.166;2023-04-06T00:59:47;20.00;58.80
57892;DHT22;43708;48.828;9.166;2023-04-06T01:02:13;19.90;58.80
57892;DHT22;43708;48.828;9.166;2023-04-06T01:04:38;19.90;58.80
57892;DHT22;43708;48.828;9.166;2023-04-06T01:07:04;19.90;58.70
57892;DHT22;43708;48.828;9.166;2023-04-06T01:09:30;19.90;58.80
57892;DHT22;43708;48.828;9.166;2023-04-06T01:11:57;19.90;58.80
57892;DHT22;43708;48.828;9.166;2023-04-06T01:14:23;19.90;58.80
57892;DHT22;43708;48.828;9.166;2023-04-06T01:16:51;19.90;58.80
57892;DHT22;43708;48.828;9.166;2023-04-06T01:19:17;19.90;58.80
57892;DHT22;43708;48.828;9.166;2023-04-06T01:21:43;19.90;58.80
57892;DHT22;43708;48.828;9.166;2023-04-06T01:24:09;19.90;58.80
57892;DHT22;43708;48.828;9.166;2023-04-06T01:26:35;19.90;58.80
57892;DHT22;43708;48.828;9.166;2023-04-06T01:29:02;19.90;59.40
57892;DHT22;43708;48.828;9.166;2023-04-06T01:31:28;19.90;58.80
57892;DHT22;43708;48.828;9.166;2023-04-06T01:33:54;19.90;58.80
57892;DHT22;43708;48.828;9.166;2023-04-06T01:36:20;19.90;58.80
57892;DHT22;43708;48.828;9.166;2023-04-06T01:38:46;19.90;58.80
57892;DHT22;43708;48.828;9.166;2023-04-06T01:41:12;19.80;58.80
57892;DHT22;43708;48.828;9.166;2023-04-06T01:43:37;19.80;58.80
57892;DHT22;43708;48.828;9.166;2023-04-06T01:46:03;19.80;58.80
57892;DHT22;43708;48.828;9.166;2023-04-06T01:48:29;19.80;58.80
57892;DHT22;43708;48.828;9.166;2023-04-06T01:50:55;19.80;58.80
57892;DHT22;43708;48.828;9.166;2023-04-06T01:53:21;19.80;58.80
57892;DHT22;43708;48.828;9.166;2023-04-06T01:55:47;19.80;58.80
57892;DHT22;43708;48.828;9.166;2023-04-06T01:58:13;19.80;58.80
57892;DHT22;43708;48.828;9.166;2023-04-06T02:00:39;19.80;58.80
57892;DHT22;43708;48.828;9.166;2023-04-06T02:03:05;19.80;58.80
57892;DHT22;43708;48.828;9.166;2023-04-06T02:05:33;19.80;58.80
57892;DHT22;43708;48.828;9.166;2023-04-06T02:08:07;19.80;58.80
57892;DHT22;43708;48.828;9.166;2023-04-06T02:10:33;19.80;59.50
57892;DHT22;43708;48.828;9.166;2023-04-06T02:12:59;19.80;58.80
57892;DHT22;43708;48.828;9.166;2023-04-06T02:15:26;19.80;58.90
57892;DHT22;43708;48.828;9.166;2023-04-06T02:17:52;19.70;58.80
57892;DHT22;43708;48.828;9.166;2023-04-06T02:20:18;19.80;58.90
57892;DHT22;43708;48.828;9.166;2023-04-06T02:22:44;19.70;58.80
57892;DHT22;43708;48.828;9.166;2023-04-06T02:25:10;19.70;58.90
57892;DHT22;43708;48.828;9.166;2023-04-06T02:27:36;19.70;58.90
57892;DHT22;43708;48.828;9.166;2023-04-06T02:30:03;19.70;58.90
57892;DHT22;43708;48.828;9.166;2023-04-06T02:32:28;19.70;58.90
57892;DHT22;43708;48.828;9.166;2023-04-06T02:34:54;19.70;58.90
57892;DHT22;43708;48.828;9.166;2023-04-06T02:37:20;19.70;58.90
57892;DHT22;43708;48.828;9.166;2023-04-06T02:39:46;19.70;58.90
57892;DHT22;43708;48.828;9.166;2023-04-06T02:42:11;19.70;58.90
57892;DHT22;43708;48.828;9.166;2023-04-06T02:44:37;19.70;58.90
57892;DHT22;43708;48.828;9.166;2023-04-06T02:47:03;19.70;58.90
57892;DHT22;43708;48.828;9.166;2023-04-06T02:49:28;19.60;58.90
57892;DHT22;43708;48.828;9.166;2023-04-06T02:51:54;19.70;58.90
57892;DHT22;43708;48.828;9.166;2023-04-06T02:54:19;19.70;58.90
57892;DHT22;43708;48.828;9.166;2023-04-06T02:56:45;19.60;58.80
57892;DHT22;43708;48.828;9.166;2023-04-06T02:59:11;19.70;58.90
57892;DHT22;43708;48.828;9.166;2023-04-06T03:01:36;19.60;58.80
57892;DHT22;43708;48.828;9.166;2023-04-06T03:04:02;19.60;58.90
57892;DHT22;43708;48.828;9.166;2023-04-06T03:06:28;19.60;58.80
57892;DHT22;43708;48.828;9.166;2023-04-06T03:08:54;19.60;58.80
57892;DHT22;43708;48.828;9.166;2023-04-06T03:11:19;19.60;58.80
57892;DHT22;43708;48.828;9.166;2023-04-06T03:13:46;19.60;58.90
57892;DHT22;43708;48.828;9.166;2023-04-06T03:16:11;19.60;58.90
57892;DHT22;43708;48.828;9.166;2023-04-06T03:18:37;19.60;58.90
57892;DHT22;43708;48.828;9.166;2023-04-06T03:21:03;19.60;58.90
57892;DHT22;43708;48.828;9.166;2023-04-06T03:23:29;19.60;58.90
57892;DHT22;43708;48.828;9.166;2023-04-06T03:25:54;19.50;58.90
57892;DHT22;43708;48.828;9.166;2023-04-06T03:28:20;19.50;58.90
57892;DHT22;43708;48.828;9.166;2023-04-06T03:30:46;19.50;58.90
57892;DHT22;43708;48.828;9.166;2023-04-06T03:33:12;19.50;58.90
57892;DHT22;43708;48.828;9.166;2023-04-06T03:35:37;19.60;58.90
57892;DHT22;43708;48.828;9.166;2023-04-06T03:38:03;19.50;58.90
57892;DHT22;43708;48.828;9.166;2023-04-06T03:40:30;19.50;58.90
57892;DHT22;43708;48.828;9.166;2023-04-06T03:42:56;19.50;58.90
57892;DHT22;43708;48.828;9.166;2023-04-06T03:45:21;19.50;58.90
57892;DHT22;43708;48.828;9.166;2023-04-06T03:47:47;19.50;58.90
57892;DHT22;43708;48.828;9.166;2023-04-06T03:50:13;19.50;58.90
57892;DHT22;43708;48.828;9.166;2023-04-06T03:52:38;19.50;58.90
57892;DHT22;43708;48.828;9.166;2023-04-06T03:55:04;19.50;58.90
57892;DHT22;43708;48.828;9.166;2023-04-06T03:57:30;19.50;58.90
57892;DHT22;43708;48.828;9.166;2023-04-06T03:59:56;19.50;59.00
57892;DHT22;43708;48.828;9.166;2023-04-06T04:02:21;19.50;59.00
57892;DHT22;43708;48.828;9.166;2023-04-06T04:04:47;19.50;59.00
57892;DHT22;43708;48.828;9.166;2023-04-06T04:07:13;19.50;58.90
57892;DHT22;43708;48.828;9.166;2023-04-06T04:09:38;19.40;58.90
57892;DHT22;43708;48.828;9.166;2023-04-06T04:12:04;19.50;59.00
57892;DHT22;43708;48.828;9.166;2023-04-06T04:14:30;19.40;58.90
57892;DHT22;43708;48.828;9.166;2023-04-06T04:16:56;19.40;58.90
57892;DHT22;43708;48.828;9.166;2023-04-06T04:19:21;19.40;59.00
57892;DHT22;43708;48.828;9.166;2023-04-06T04:21:47;19.40;59.00
57892;DHT22;43708;48.828;9.166;2023-04-06T04:24:13;19.40;59.00
57892;DHT22;43708;48.828;9.166;2023-04-06T04:26:39;19.40;59.00
57892;DHT22;43708;48.828;9.166;2023-04-06T04:29:05;19.40;59.00
57892;DHT22;43708;48.828;9.166;2023-04-06T04:31:31;19.40;59.00
57892;DHT22;43708;48.828;9.166;2023-04-06T04:33:58;19.40;59.00
57892;DHT22;43708;48.828;9.166;2023-04-06T04:36:23;19.40;59.00
57892;DHT22;43708;48.828;9.166;2023-04-06T04:38:51;19.40;59.00
57892;DHT22;43708;48.828;9.166;2023-04-06T04:41:17;19.40;59.00
57892;DHT22;43708;48.828;9.166;2023-04-06T04:43:42;19.30;58.90
57892;DHT22;43708;48.828;9.166;2023-04-06T04:46:08;19.40;59.00
57892;DHT22;43708;48.828;9.166;2023-04-06T04:48:34;19.30;59.00
57892;DHT22;43708;48.828;9.166;2023-04-06T04:51:00;19.40;59.00
57892;DHT22;43708;48.828;9.166;2023-04-06T04:53:25;19.30;59.00
57892;DHT22;43708;48.828;9.166;2023-04-06T04:55:51;19.30;59.00
57892;DHT22;43708;48.828;9.166;2023-04-06T04:58:16;19.30;59.00
57892;DHT22;43708;48.828;9.166;2023-04-06T05:00:44;19.30;59.00
57892;DHT22;43708;48.828;9.166;2023-04-06T05:03:11;19.30;59.00
57892;DHT22;43708;48.828;9.166;2023-04-06T05:05:39;19.30;59.00
57892;DHT22;43708;48.828;9.166;2023-04-06T05:08:04;19.30;59.00
57892;DHT22;43708;48.828;9.166;2023-04-06T05:10:30;19.30;59.00
57892;DHT22;43708;48.828;9.166;2023-04-06T05:12:56;19.40;59.00
57892;DHT22;43708;48.828;9.166;2023-04-06T05:15:22;19.40;59.00
57892;DHT22;43708;48.828;9.166;2023-04-06T05:17:47;19.40;59.00
57892;DHT22;43708;48.828;9.166;2023-04-06T05:20:13;19.40;59.00
57892;DHT22;43708;48.828;9.166;2023-04-06T05:22:39;19.40;59.00
57892;DHT22;43708;48.828;9.166;2023-04-06T05:25:05;19.40;59.10
57892;DHT22;43708;48.828;9.166;2023-04-06T05:27:30;19.40;59.00
57892;DHT22;43708;48.828;9.166;2023-04-06T05:29:56;19.40;59.10
57892;DHT22;43708;48.828;9.166;2023-04-06T05:32:22;19.40;59.10
57892;DHT22;43708;48.828;9.166;2023-04-06T05:34:50;19.40;59.10
57892;DHT22;43708;48.828;9.166;2023-04-06T05:37:16;19.40;59.10
57892;DHT22;43708;48.828;9.166;2023-04-06T05:39:41;19.40;59.20
57892;DHT22;43708;48.828;9.166;2023-04-06T05:42:07;19.40;59.20
57892;DHT22;43708;48.828;9.166;2023-04-06T05:44:33;19.40;59.20
57892;DHT22;43708;48.828;9.166;2023-04-06T05:46:58;19.40;59.20
57892;DHT22;43708;48.828;9.166;2023-04-06T05:49:24;19.40;59.20
57892;DHT22;43708;48.828;9.166;2023-04-06T05:51:50;19.40;59.20
57892;DHT22;43708;48.828;9.166;2023-04-06T05:54:16;19.40;59.20
57892;DHT22;43708;48.828;9.166;2023-04-06T05:56:41;19.40;59.20
57892;DHT22;43708;48.828;9.166;2023-04-06T05:59:07;19.40;59.20
57892;DHT22;43708;48.828;9.166;2023-04-06T06:01:33;19.40;59.30
57892;DHT22;43708;48.828;9.166;2023-04-06T06:04:03;19.40;59.30
57892;DHT22;43708;48.828;9.166;2023-04-06T06:06:29;19.40;59.30
57892;DHT22;43708;48.828;9.166;2023-04-06T06:08:57;19.40;59.30
57892;DHT22;43708;48.828;9.166;2023-04-06T06:11:27;19.40;59.30
57892;DHT22;43708;48.828;9.166;2023-04-06T06:13:53;19.40;59.30
57892;DHT22;43708;48.828;9.166;2023-04-06T06:16:19;19.40;59.40
57892;DHT22;43708;48.828;9.166;2023-04-06T06:18:45;19.40;59.40
57892;DHT22;43708;48.828;9.166;2023-04-06T06:21:10;19.40;59.40
57892;DHT22;43708;48.828;9.166;2023-04-06T06:23:41;19.40;59.40
57892;DHT22;43708;48.828;9.166;2023-04-06T06:26:07;19.40;59.40
57892;DHT22;43708;48.828;9.166;2023-04-06T06:28:32;19.40;59.40
57892;DHT22;43708;48.828;9.166;2023-04-06T06:30:58;19.40;59.50
57892;DHT22;43708;48.828;9.166;2023-04-06T06:33:24;19.40;59.50
57892;DHT22;43708;48.828;9.166;2023-04-06T06:35:51;19.40;59.50
57892;DHT22;43708;48.828;9.166;2023-04-06T06:38:17;19.40;59.50
57892;DHT22;43708;48.828;9.166;2023-04-06T06:40:43;19.40;59.60
57892;DHT22;43708;48.828;9.166;2023-04-06T06:43:08;19.40;59.60
57892;DHT22;43708;48.828;9.166;2023-04-06T06:45:34;19.40;59.60
57892;DHT22;43708;48.828;9.166;2023-04-06T06:48:00;19.40;59.60
57892;DHT22;43708;48.828;9.166;2023-04-06T06:50:26;19.40;59.70
57892;DHT22;43708;48.828;9.166;2023-04-06T06:52:52;19.40;59.70
57892;DHT22;43708;48.828;9.166;2023-04-06T06:55:17;19.40;59.70
57892;DHT22;43708;48.828;9.166;2023-04-06T06:57:44;19.40;59.60
57892;DHT22;43708;48.828;9.166;2023-04-06T07:00:12;19.50;59.80
57892;DHT22;43708;48.828;9.166;2023-04-06T07:02:38;19.50;59.90
57892;DHT22;43708;48.828;9.166;2023-04-06T07:05:05;19.50;59.90
57892;DHT22;43708;48.828;9.166;2023-04-06T07:07:34;19.40;59.80
57892;DHT22;43708;48.828;9.166;2023-04-06T07:10:00;19.40;59.90
57892;DHT22;43708;48.828;9.166;2023-04-06T07:12:26;19.40;60.00
57892;DHT22;43708;48.828;9.166;2023-04-06T07:14:52;19.40;60.00
57892;DHT22;43708;48.828;9.166;2023-04-06T07:17:17;19.40;60.10
57892;DHT22;43708;48.828;9.166;2023-04-06T07:19:43;19.40;60.20
57892;DHT22;43708;48.828;9.166;2023-04-06T07:22:09;19.40;60.30
57892;DHT22;43708;48.828;9.166;2023-04-06T07:24:34;19.40;60.50
57892;DHT22;43708;48.828;9.166;2023-04-06T07:27:00;19.40;60.70
57892;DHT22;43708;48.828;9.166;2023-04-06T07:29:26;19.30;60.80
57892;DHT22;43708;48.828;9.166;2023-04-06T07:31:53;19.30;60.90
57892;DHT22;43708;48.828;9.166;2023-04-06T07:34:18;19.30;61.10
57892;DHT22;43708;48.828;9.166;2023-04-06T07:36:44;19.40;61.20
57892;DHT22;43708;48.828;9.166;2023-04-06T07:39:10;19.30;61.30
57892;DHT22;43708;48.828;9.166;2023-04-06T07:41:36;19.30;61.40
57892;DHT22;43708;48.828;9.166;2023-04-06T07:44:02;19.30;61.50
57892;DHT22;43708;48.828;9.166;2023-04-06T07:46:28;19.30;61.50
57892;DHT22;43708;48.828;9.166;2023-04-06T07:48:54;19.30;61.50
57892;DHT22;43708;48.828;9.166;2023-04-06T07:51:19;19.30;61.60
57892;DHT22;43708;48.828;9.166;2023-04-06T07:53:45;19.30;61.60
57892;DHT22;43708;48.828;9.166;2023-04-06T07:56:11;19.40;62.00
57892;DHT22;43708;48.828;9.166;2023-04-06T07:58:40;19.40;62.10
57892;DHT22;43708;48.828;9.166;2023-04-06T08:01:06;19.40;62.20
57892;DHT22;43708;48.828;9.166;2023-04-06T08:03:34;19.40;62.20
57892;DHT22;43708;48.828;9.166;2023-04-06T08:06:00;19.40;62.20
57892;DHT22;43708;48.828;9.166;2023-04-06T08:08:26;19.40;62.20
57892;DHT22;43708;48.828;9.166;2023-04-06T08:10:51;19.30;62.20
57892;DHT22;43708;48.828;9.166;2023-04-06T08:13:17;19.30;62.20
57892;DHT22;43708;48.828;9.166;2023-04-06T08:15:43;19.30;62.20
57892;DHT22;43708;48.828;9.166;2023-04-06T08:18:09;19.30;62.20
57892;DHT22;43708;48.828;9.166;2023-04-06T08:20:35;19.30;62.20
57892;DHT22;43708;48.828;9.166;2023-04-06T08:23:00;19.30;62.20
57892;DHT22;43708;48.828;9.166;2023-04-06T08:25:26;19.40;62.30
57892;DHT22;43708;48.828;9.166;2023-04-06T08:27:52;19.40;62.30
57892;DHT22;43708;48.828;9.166;2023-04-06T08:30:17;19.40;62.30
57892;DHT22;43708;48.828;9.166;2023-04-06T08:32:45;19.40;62.30
57892;DHT22;43708;48.828;9.166;2023-04-06T08:35:10;19.40;62.20
57892;DHT22;43708;48.828;9.166;2023-04-06T08:37:36;19.40;62.30
57892;DHT22;43708;48.828;9.166;2023-04-06T08:40:02;19.40;62.30
57892;DHT22;43708;48.828;9.166;2023-04-06T08:42:32;19.40;62.30
57892;DHT22;43708;48.828;9.166;2023-04-06T08:44:58;19.40;62.30
57892;DHT22;43708;48.828;9.166;2023-04-06T08:47:24;19.40;62.30
57892;DHT22;43708;48.828;9.166;2023-04-06T08:49:51;19.40;62.40
57892;DHT22;43708;48.828;9.166;2023-04-06T08:52:18;19.40;62.30
57892;DHT22;43708;48.828;9.166;2023-04-06T08:54:44;19.40;62.30
57892;DHT22;43708;48.828;9.166;2023-04-06T08:57:10;19.40;62.30
57892;DHT22;43708;48.828;9.166;2023-04-06T08:59:36;19.40;63.10
57892;DHT22;43708;48.828;9.166;2023-04-06T09:02:05;19.50;62.40
57892;DHT22;43708;48.828;9.166;2023-04-06T09:04:32;19.40;62.40
57892;DHT22;43708;48.828;9.166;2023-04-06T09:06:58;19.40;62.40
57892;DHT22;43708;48.828;9.166;2023-04-06T09:09:24;19.40;62.30
57892;DHT22;43708;48.828;9.166;2023-04-06T09:11:51;19.50;62.40
57892;DHT22;43708;48.828;9.166;2023-04-06T09:14:33;19.50;62.50
57892;DHT22;43708;48.828;9.166;2023-04-06T09:17:00;19.50;62.80
57892;DHT22;43708;48.828;9.166;2023-04-06T09:19:25;19.50;63.20
57892;DHT22;43708;48.828;9.166;2023-04-06T09:22:04;19.50;63.50
57892;DHT22;43708;48.828;9.166;2023-04-06T09:24:44;19.50;63.70
57892;DHT22;43708;48.828;9.166;2023-04-06T09:27:11;19.50;63.90
57892;DHT22;43708;48.828;9.166;2023-04-06T09:29:37;19.50;64.50
57892;DHT22;43708;48.828;9.166;2023-04-06T09:32:07;19.50;64.30
57892;DHT22;43708;48.828;9.166;2023-04-06T09:34:33;19.50;64.00
57892;DHT22;43708;48.828;9.166;2023-04-06T09:37:00;19.50;63.60
57892;DHT22;43708;48.828;9.166;2023-04-06T09:39:26;19.50;64.10
57892;DHT22;43708;48.828;9.166;2023-04-06T09:41:52;19.50;64.60
57892;DHT22;43708;48.828;9.166;2023-04-06T09:44:19;19.50;64.70
57892;DHT22;43708;48.828;9.166;2023-04-06T09:46:46;19.50;64.90
57892;DHT22;43708;48.828;9.166;2023-04-06T09:49:13;19.50;64.90
57892;DHT22;43708;48.828;9.166;2023-04-06T09:54:07;19.50;65.00
57892;DHT22;43708;48.828;9.166;2023-04-06T09:56:53;19.60;65.00
57892;DHT22;43708;48.828;9.166;2023-04-06T09:59:31;19.60;65.00
57892;DHT22;43708;48.828;9.166;2023-04-06T10:02:05;19.60;65.00
57892;DHT22;43708;48.828;9.166;2023-04-06T10:07:04;19.60;65.40
57892;DHT22;43708;48.828;9.166;2023-04-06T10:09:32;19.60;64.80
57892;DHT22;43708;48.828;9.166;2023-04-06T10:12:05;19.60;64.90
57892;DHT22;43708;48.828;9.166;2023-04-06T10:14:33;19.60;64.70
57892;DHT22;43708;48.828;9.166;2023-04-06T10:17:04;19.70;64.60
57892;DHT22;43708;48.828;9.166;2023-04-06T10:19:54;19.70;64.50
57892;DHT22;43708;48.828;9.166;2023-04-06T10:22:29;19.70;64.40
57892;DHT22;43708;48.828;9.166;2023-04-06T10:24:58;19.80;64.30
57892;DHT22;43708;48.828;9.166;2023-04-06T10:27:28;19.80;64.20
57892;DHT22;43708;48.828;9.166;2023-04-06T10:30:01;19.90;64.10
57892;DHT22;43708;48.828;9.166;2023-04-06T10:32:38;19.90;64.10
57892;DHT22;43708;48.828;9.166;2023-04-06T10:35:11;19.90;64.00
57892;DHT22;43708;48.828;9.166;2023-04-06T10:38:05;19.90;64.00
57892;DHT22;43708;48.828;9.166;2023-04-06T10:40:31;20.00;63.90
57892;DHT22;43708;48.828;9.166;2023-04-06T10:43:20;20.00;63.80
57892;DHT22;43708;48.828;9.166;2023-04-06T10:45:55;20.00;63.80
57892;DHT22;43708;48.828;9.166;2023-04-06T10:48:21;20.00;63.70
57892;DHT22;43708;48.828;9.166;2023-04-06T10:50:51;20.10;63.80
57892;DHT22;43708;48.828;9.166;2023-04-06T10:53:27;20.10;63.80
57892;DHT22;43708;48.828;9.166;2023-04-06T10:55:55;20.10;63.90
57892;DHT22;43708;48.828;9.166;2023-04-06T10:58:24;20.10;64.00
57892;DHT22;43708;48.828;9.166;2023-04-06T11:00:51;20.20;64.20
57892;DHT22;43708;48.828;9.166;2023-04-06T11:03:17;20.20;64.20
57892;DHT22;43708;48.828;9.166;2023-04-06T11:05:46;20.20;64.30
57892;DHT22;43708;48.828;9.166;2023-04-06T11:08:29;20.30;64.40
57892;DHT22;43708;48.828;9.166;2023-04-06T11:11:10;20.30;64.10
57892;DHT22;43708;48.828;9.166;2023-04-06T11:13:57;20.30;64.10
57892;DHT22;43708;48.828;9.166;2023-04-06T11:16:27;20.30;64.10
57892;DHT22;43708;48.828;9.166;2023-04-06T11:18:55;20.20;64.30
57892;DHT22;43708;48.828;9.166;2023-04-06T11:24:23;20.20;64.50
57892;DHT22;43708;48.828;9.166;2023-04-06T11:26:52;20.30;64.50
57892;DHT22;43708;48.828;9.166;2023-04-06T11:29:19;20.30;64.40
57892;DHT22;43708;48.828;9.166;2023-04-06T11:31:47;20.30;64.40
57892;DHT22;43708;48.828;9.166;2023-04-06T11:34:20;20.30;64.40
57892;DHT22;43708;48.828;9.166;2023-04-06T11:36:47;20.30;64.30
57892;DHT22;43708;48.828;9.166;2023-04-06T11:39:18;20.30;64.30
57892;DHT22;43708;48.828;9.166;2023-04-06T11:41:51;20.40;64.30
57892;DHT22;43708;48.828;9.166;2023-04-06T11:44:35;20.40;64.10
57892;DHT22;43708;48.828;9.166;2023-04-06T11:47:06;20.40;64.10
57892;DHT22;43708;48.828;9.166;2023-04-06T11:49:33;20.40;64.10
57892;DHT22;43708;48.828;9.166;2023-04-06T11:52:02;20.40;64.00
57892;DHT22;43708;48.828;9.166;2023-04-06T11:54:35;20.40;63.90
57892;DHT22;43708;48.828;9.166;2023-04-06T11:57:03;20.40;63.90
57892;DHT22;43708;48.828;9.166;2023-04-06T11:59:29;20.40;63.80
57892;DHT22;43708;48.828;9.166;2023-04-06T12:01:56;20.50;63.90
57892;DHT22;43708;48.828;9.166;2023-04-06T12:04:22;20.50;63.80
57892;DHT22;43708;48.828;9.166;2023-04-06T12:06:48;20.50;63.80
57892;DHT22;43708;48.828;9.166;2023-04-06T12:09:13;20.50;63.70
57892;DHT22;43708;48.828;9.166;2023-04-06T12:11:39;20.50;63.70
57892;DHT22;43708;48.828;9.166;2023-04-06T12:14:06;20.50;63.70
57892;DHT22;43708;48.828;9.166;2023-04-06T12:16:33;20.50;63.70
57892;DHT22;43708;48.828;9.166;2023-04-06T12:18:59;20.50;63.60
57892;DHT22;43708;48.828;9.166;2023-04-06T12:21:27;20.50;63.60
57892;DHT22;43708;48.828;9.166;2023-04-06T12:23:54;20.50;63.60
57892;DHT22;43708;48.828;9.166;2023-04-06T12:26:20;20.50;63.70
57892;DHT22;43708;48.828;9.166;2023-04-06T12:28:45;20.50;63.70
57892;DHT22;43708;48.828;9.166;2023-04-06T12:31:15;20.50;63.60
57892;DHT22;43708;48.828;9.166;2023-04-06T12:33:41;20.50;63.60
57892;DHT22;43708;48.828;9.166;2023-04-06T12:36:17;20.60;63.60
57892;DHT22;43708;48.828;9.166;2023-04-06T12:38:50;20.60;63.60
57892;DHT22;43708;48.828;9.166;2023-04-06T12:41:17;20.60;63.50
57892;DHT22;43708;48.828;9.166;2023-04-06T12:43:44;20.60;63.50
57892;DHT22;43708;48.828;9.166;2023-04-06T12:46:10;20.60;63.50
57892;DHT22;43708;48.828;9.166;2023-04-06T12:48:36;20.60;63.40
57892;DHT22;43708;48.828;9.166;2023-04-06T12:51:06;20.60;63.30
57892;DHT22;43708;48.828;9.166;2023-04-06T12:53:32;20.60;63.30
57892;DHT22;43708;48.828;9.166;2023-04-06T12:55:58;20.70;63.30
57892;DHT22;43708;48.828;9.166;2023-04-06T12:58:25;20.70;63.20
57892;DHT22;43708;48.828;9.166;2023-04-06T13:00:54;20.70;63.10
57892;DHT22;43708;48.828;9.166;2023-04-06T13:03:21;20.70;63.10
57892;DHT22;43708;48.828;9.166;2023-04-06T13:05:49;20.80;63.10
57892;DHT22;43708;48.828;9.166;2023-04-06T13:08:16;20.80;63.00
57892;DHT22;43708;48.828;9.166;2023-04-06T13:10:47;20.80;63.00
57892;DHT22;43708;48.828;9.166;2023-04-06T13:13:14;20.80;63.00
57892;DHT22;43708;48.828;9.166;2023-04-06T13:15:40;20.80;63.00
57892;DHT22;43708;48.828;9.166;2023-04-06T13:18:05;20.80;63.10
57892;DHT22;43708;48.828;9.166;2023-04-06T13:20:31;20.80;63.00
57892;DHT22;43708;48.828;9.166;2023-04-06T13:22:57;20.80;62.90
57892;DHT22;43708;48.828;9.166;2023-04-06T13:25:23;20.90;62.90
57892;DHT22;43708;48.828;9.166;2023-04-06T13:27:48;20.90;62.90
57892;DHT22;43708;48.828;9.166;2023-04-06T13:30:15;20.90;62.90
57892;DHT22;43708;48.828;9.166;2023-04-06T13:32:41;20.90;62.90
57892;DHT22;43708;48.828;9.166;2023-04-06T13:35:07;20.80;62.90
57892;DHT22;43708;48.828;9.166;2023-04-06T13:37:34;20.90;63.00
57892;DHT22;43708;48.828;9.166;2023-04-06T13:40:01;20.80;63.00
57892;DHT22;43708;48.828;9.166;2023-04-06T13:42:27;20.80;63.00
57892;DHT22;43708;48.828;9.166;2023-04-06T13:44:53;20.80;63.00
57892;DHT22;43708;48.828;9.166;2023-04-06T13:47:19;20.80;63.00
57892;DHT22;43708;48.828;9.166;2023-04-06T13:49:46;20.80;63.00
57892;DHT22;43708;48.828;9.166;2023-04-06T13:52:12;20.80;63.00
57892;DHT22;43708;48.828;9.166;2023-04-06T13:54:37;20.80;63.00
57892;DHT22;43708;48.828;9.166;2023-04-06T13:57:03;20.80;63.00
57892;DHT22;43708;48.828;9.166;2023-04-06T13:59:36;20.90;63.10
57892;DHT22;43708;48.828;9.166;2023-04-06T14:02:02;20.90;63.00
57892;DHT22;43708;48.828;9.166;2023-04-06T14:04:29;20.90;63.00
57892;DHT22;43708;48.828;9.166;2023-04-06T14:06:55;20.80;63.00
57892;DHT22;43708;48.828;9.166;2023-04-06T14:09:21;20.80;63.90
57892;DHT22;43708;48.828;9.166;2023-04-06T14:11:47;20.80;63.20
57892;DHT22;43708;48.828;9.166;2023-04-06T14:14:13;20.80;63.30
57892;DHT22;43708;48.828;9.166;2023-04-06T14:16:38;20.70;63.20
57892;DHT22;43708;48.828;9.166;2023-04-06T14:19:04;20.80;63.30
57892;DHT22;43708;48.828;9.166;2023-04-06T14:21:29;20.70;63.30
57892;DHT22;43708;48.828;9.166;2023-04-06T14:23:55;20.70;63.40
57892;DHT22;43708;48.828;9.166;2023-04-06T14:26:22;20.70;63.40
57892;DHT22;43708;48.828;9.166;2023-04-06T14:28:48;20.70;63.40
57892;DHT22;43708;48.828;9.166;2023-04-06T14:31:14;20.70;63.40
57892;DHT22;43708;48.828;9.166;2023-04-06T14:33:41;20.70;63.40
57892;DHT22;43708;48.828;9.166;2023-04-06T14:36:08;20.70;63.30
57892;DHT22;43708;48.828;9.166;2023-04-06T14:38:34;20.70;63.20
57892;DHT22;43708;48.828;9.166;2023-04-06T14:41:00;20.80;63.20
57892;DHT22;43708;48.828;9.166;2023-04-06T14:43:26;20.80;63.10
57892;DHT22;43708;48.828;9.166;2023-04-06T14:45:52;20.80;63.10
57892;DHT22;43708;48.828;9.166;2023-04-06T14:48:17;20.80;63.00
57892;DHT22;43708;48.828;9.166;2023-04-06T14:50:53;20.80;63.00
57892;DHT22;43708;48.828;9.166;2023-04-06T14:53:20;20.90;63.00
57892;DHT22;43708;48.828;9.166;2023-04-06T14:55:46;20.90;62.90
57892;DHT22;43708;48.828;9.166;2023-04-06T14:58:11;20.90;62.90
57892;DHT22;43708;48.828;9.166;2023-04-06T15:00:38;20.90;62.90
57892;DHT22;43708;48.828;9.166;2023-04-06T15:03:04;20.90;62.80
57892;DHT22;43708;48.828;9.166;2023-04-06T15:05:30;20.90;62.90
57892;DHT22;43708;48.828;9.166;2023-04-06T15:07:56;20.90;62.90
57892;DHT22;43708;48.828;9.166;2023-04-06T15:10:22;20.90;63.00
57892;DHT22;43708;48.828;9.166;2023-04-06T15:12:47;20.80;63.00
57892;DHT22;43708;48.828;9.166;2023-04-06T15:15:13;20.80;63.10
57892;DHT22;43708;48.828;9.166;2023-04-06T15:17:38;20.80;63.10
57892;DHT22;43708;48.828;9.166;2023-04-06T15:20:05;20.80;63.10
57892;DHT22;43708;48.828;9.166;2023-04-06T15:22:31;20.80;63.20
57892;DHT22;43708;48.828;9.166;2023-04-06T15:24:57;20.70;63.20
57892;DHT22;43708;48.828;9.166;2023-04-06T15:27:22;20.70;63.20
57892;DHT22;43708;48.828;9.166;2023-04-06T15:29:48;20.70;63.20
57892;DHT22;43708;48.828;9.166;2023-04-06T15:32:13;20.70;63.20
57892;DHT22;43708;48.828;9.166;2023-04-06T15:34:39;20.70;63.30
57892;DHT22;43708;48.828;9.166;2023-04-06T15:37:05;20.70;63.30